sensor_id;sensor_type;location;lat;lon;timestamp;pressure;altitude;pressure_sealevel;temperature;humidity
37066;BME280;22981;43.080;25.550;2023-11-19T00:01:17;99346.53;;;4.44;80.69
37066;BME280;22981;43.080;25.550;2023-11-19T00:03:44;99344.89;;;4.43;80.66
37066;BME280;22981;43.080;25.550;2023-11-19T00:06:12;99348.20;;;4.45;80.62
37066;BME280;22981;43.080;25.550;2023-11-19T00:08:39;99348.52;;;4.46;80.58
37066;BME280;22981;43.080;25.550;2023-11-19T00:11:07;99349.84;;;4.46;80.48
37066;BME280;22981;43.080;25.550;2023-11-19T00:13:35;99345.86;;;4.46;80.30
37066;BME280;22981;43.080;25.550;2023-11-19T00:16:02;99341.73;;;4.44;80.23
37066;BME280;22981;43.080;25.550;2023-11-19T00:18:30;99342.89;;;4.45;80.13
37066;BME280;22981;43.080;25.550;2023-11-19T00:20:59;99345.55;;;4.45;80.03
37066;BME280;22981;43.080;25.550;2023-11-19T00:23:28;99347.85;;;4.44;79.97
37066;BME280;22981;43.080;25.550;2023-11-19T00:25:56;99345.70;;;4.44;79.93
37066;BME280;22981;43.080;25.550;2023-11-19T00:28:23;99331.64;;;4.43;79.86
37066;BME280;22981;43.080;25.550;2023-11-19T00:30:52;99337.95;;;4.42;79.75
37066;BME280;22981;43.080;25.550;2023-11-19T00:33:20;99344.89;;;4.43;79.69
37066;BME280;22981;43.080;25.550;2023-11-19T00:35:47;99347.55;;;4.43;79.54
37066;BME280;22981;43.080;25.550;2023-11-19T00:38:15;99343.25;;;4.42;79.47
37066;BME280;22981;43.080;25.550;2023-11-19T00:40:42;99347.23;;;4.42;79.43
37066;BME280;22981;43.080;25.550;2023-11-19T00:43:10;99343.06;;;4.44;79.38
37066;BME280;22981;43.080;25.550;2023-11-19T00:45:38;99348.67;;;4.45;79.31
37066;BME280;22981;43.080;25.550;2023-11-19T00:48:06;99348.52;;;4.46;79.26
37066;BME280;22981;43.080;25.550;2023-11-19T00:50:33;99346.02;;;4.45;79.21
37066;BME280;22981;43.080;25.550;2023-11-19T00:53:01;99350.34;;;4.46;79.17
37066;BME280;22981;43.080;25.550;2023-11-19T00:55:30;99345.36;;;4.47;79.15
37066;BME280;22981;43.080;25.550;2023-11-19T00:57:58;99333.11;;;4.46;79.09
37066;BME280;22981;43.080;25.550;2023-11-19T01:00:26;99332.09;;;4.47;79.00
37066;BME280;22981;43.080;25.550;2023-11-19T01:02:53;99329.95;;;4.46;78.88
37066;BME280;22981;43.080;25.550;2023-11-19T01:05:21;99317.52;;;4.47;78.85
37066;BME280;22981;43.080;25.550;2023-11-19T01:07:49;99327.11;;;4.48;78.74
37066;BME280;22981;43.080;25.550;2023-11-19T01:10:18;99318.97;;;4.49;78.67
37066;BME280;22981;43.080;25.550;2023-11-19T01:12:46;99324.77;;;4.49;78.59
37066;BME280;22981;43.080;25.550;2023-11-19T01:15:14;99326.09;;;4.49;78.46
37066;BME280;22981;43.080;25.550;2023-11-19T01:17:41;99323.79;;;4.50;78.34
37066;BME280;22981;43.080;25.550;2023-11-19T01:20:10;99323.79;;;4.50;78.20
37066;BME280;22981;43.080;25.550;2023-11-19T01:22:39;99320.28;;;4.49;78.11
37066;BME280;22981;43.080;25.550;2023-11-19T01:25:07;99332.72;;;4.49;77.97
37066;BME280;22981;43.080;25.550;2023-11-19T01:27:35;99326.44;;;4.50;77.87
37066;BME280;22981;43.080;25.550;2023-11-19T01:30:03;99328.75;;;4.49;77.77
37066;BME280;22981;43.080;25.550;2023-11-19T01:32:32;99325.28;;;4.48;77.66
37066;BME280;22981;43.080;25.550;2023-11-19T01:34:59;99321.61;;;4.49;77.57
37066;BME280;22981;43.080;25.550;2023-11-19T01:37:27;99326.75;;;4.51;77.43
37066;BME280;22981;43.080;25.550;2023-11-19T01:39:55;99334.70;;;4.51;77.33
37066;BME280;22981;43.080;25.550;2023-11-19T01:42:22;99332.36;;;4.52;77.14
37066;BME280;22981;43.080;25.550;2023-11-19T01:45:01;99330.84;;;4.53;77.04
37066;BME280;22981;43.080;25.550;2023-11-19T01:47:30;99337.98;;;4.53;76.98
37066;BME280;22981;43.080;25.550;2023-11-19T01:49:58;99339.30;;;4.53;76.81
37066;BME280;22981;43.080;25.550;2023-11-19T01:52:26;99352.91;;;4.54;76.74
37066;BME280;22981;43.080;25.550;2023-11-19T01:54:54;99355.05;;;4.55;76.61
37066;BME280;22981;43.080;25.550;2023-11-19T01:57:23;99344.44;;;4.55;76.52
37066;BME280;22981;43.080;25.550;2023-11-19T01:59:52;99339.45;;;4.56;76.42
37066;BME280;22981;43.080;25.550;2023-11-19T02:02:20;99340.08;;;4.58;76.32
37066;BME280;22981;43.080;25.550;2023-11-19T02:04:49;99337.27;;;4.59;76.25
37066;BME280;22981;43.080;25.550;2023-11-19T02:07:18;99341.75;;;4.59;76.13
37066;BME280;22981;43.080;25.550;2023-11-19T02:09:46;99326.66;;;4.59;75.93
37066;BME280;22981;43.080;25.550;2023-11-19T02:12:14;99332.47;;;4.59;75.84
37066;BME280;22981;43.080;25.550;2023-11-19T02:14:41;99332.78;;;4.60;75.82
37066;BME280;22981;43.080;25.550;2023-11-19T02:17:26;99344.01;;;4.62;75.68
37066;BME280;22981;43.080;25.550;2023-11-19T02:19:54;99345.84;;;4.61;75.60
37066;BME280;22981;43.080;25.550;2023-11-19T02:22:22;99347.16;;;4.61;75.54
37066;BME280;22981;43.080;25.550;2023-11-19T02:24:51;99342.68;;;4.62;75.57
37066;BME280;22981;43.080;25.550;2023-11-19T02:27:24;99343.34;;;4.64;75.57
37066;BME280;22981;43.080;25.550;2023-11-19T02:29:50;99340.38;;;4.63;75.43
37066;BME280;22981;43.080;25.550;2023-11-19T02:32:18;99338.54;;;4.63;75.28
37066;BME280;22981;43.080;25.550;2023-11-19T02:34:46;99335.89;;;4.63;75.12
37066;BME280;22981;43.080;25.550;2023-11-19T02:37:14;99338.54;;;4.63;75.03
37066;BME280;22981;43.080;25.550;2023-11-19T02:39:42;99343.65;;;4.65;75.02
37066;BME280;22981;43.080;25.550;2023-11-19T02:42:09;99336.00;;;4.66;74.92
37066;BME280;22981;43.080;25.550;2023-11-19T02:44:37;99338.34;;;4.65;74.77
37066;BME280;22981;43.080;25.550;2023-11-19T02:47:06;99344.30;;;4.67;74.78
37066;BME280;22981;43.080;25.550;2023-11-19T02:49:34;99347.43;;;4.66;74.70
37066;BME280;22981;43.080;25.550;2023-11-19T02:52:04;99350.59;;;4.66;74.56
37066;BME280;22981;43.080;25.550;2023-11-19T02:54:32;99360.69;;;4.66;74.50
37066;BME280;22981;43.080;25.550;2023-11-19T02:57:01;99359.36;;;4.66;74.47
37066;BME280;22981;43.080;25.550;2023-11-19T02:59:31;99360.69;;;4.66;74.41
37066;BME280;22981;43.080;25.550;2023-11-19T03:02:00;99369.50;;;4.67;74.37
37066;BME280;22981;43.080;25.550;2023-11-19T03:04:27;99361.70;;;4.65;74.32
37066;BME280;22981;43.080;25.550;2023-11-19T03:06:55;99368.33;;;4.65;74.34
37066;BME280;22981;43.080;25.550;2023-11-19T03:09:22;99365.17;;;4.66;74.27
37066;BME280;22981;43.080;25.550;2023-11-19T03:11:51;99371.30;;;4.66;74.18
37066;BME280;22981;43.080;25.550;2023-11-19T03:14:18;99374.45;;;4.66;74.02
37066;BME280;22981;43.080;25.550;2023-11-19T03:16:46;99373.95;;;4.66;73.92
37066;BME280;22981;43.080;25.550;2023-11-19T03:19:14;99376.59;;;4.66;73.83
37066;BME280;22981;43.080;25.550;2023-11-19T03:21:41;99372.31;;;4.65;73.67
37066;BME280;22981;43.080;25.550;2023-11-19T03:24:09;99379.95;;;4.64;73.58
37066;BME280;22981;43.080;25.550;2023-11-19T03:26:36;99377.49;;;4.63;73.50
37066;BME280;22981;43.080;25.550;2023-11-19T03:29:04;99380.31;;;4.61;73.42
37066;BME280;22981;43.080;25.550;2023-11-19T03:31:32;99380.00;;;4.60;73.24
37066;BME280;22981;43.080;25.550;2023-11-19T03:33:59;99382.65;;;4.60;73.23
37066;BME280;22981;43.080;25.550;2023-11-19T03:36:31;99387.64;;;4.59;73.19
37066;BME280;22981;43.080;25.550;2023-11-19T03:38:59;99392.94;;;4.59;73.08
37066;BME280;22981;43.080;25.550;2023-11-19T03:41:26;99399.57;;;4.59;73.13
37066;BME280;22981;43.080;25.550;2023-11-19T03:43:54;99405.03;;;4.58;73.19
37066;BME280;22981;43.080;25.550;2023-11-19T03:46:22;99403.91;;;4.56;73.14
37066;BME280;22981;43.080;25.550;2023-11-19T03:48:50;99407.37;;;4.57;73.09
37066;BME280;22981;43.080;25.550;2023-11-19T03:51:17;99409.83;;;4.58;73.16
37066;BME280;22981;43.080;25.550;2023-11-19T03:53:46;99409.02;;;4.58;73.16
37066;BME280;22981;43.080;25.550;2023-11-19T03:56:13;99423.28;;;4.57;73.00
37066;BME280;22981;43.080;25.550;2023-11-19T03:58:41;99417.16;;;4.56;72.91
37066;BME280;22981;43.080;25.550;2023-11-19T04:01:11;99416.34;;;4.56;72.87
37066;BME280;22981;43.080;25.550;2023-11-19T04:03:40;99419.50;;;4.55;72.81
37066;BME280;22981;43.080;25.550;2023-11-19T04:06:08;99413.03;;;4.53;72.75
37066;BME280;22981;43.080;25.550;2023-11-19T04:08:36;99416.53;;;4.54;72.76
37066;BME280;22981;43.080;25.550;2023-11-19T04:11:04;99411.70;;;4.53;72.86
37066;BME280;22981;43.080;25.550;2023-11-19T04:13:32;99414.86;;;4.53;72.82
37066;BME280;22981;43.080;25.550;2023-11-19T04:16:00;99429.45;;;4.53;72.79
37066;BME280;22981;43.080;25.550;2023-11-19T04:18:27;99443.52;;;4.53;72.74
37066;BME280;22981;43.080;25.550;2023-11-19T04:20:55;99446.52;;;4.55;72.67
37066;BME280;22981;43.080;25.550;2023-11-19T04:23:23;99456.61;;;4.55;72.70
37066;BME280;22981;43.080;25.550;2023-11-19T04:25:52;99457.75;;;4.57;72.70
37066;BME280;22981;43.080;25.550;2023-11-19T04:28:20;99451.94;;;4.57;72.67
37066;BME280;22981;43.080;25.550;2023-11-19T04:30:48;99446.32;;;4.56;72.70
37066;BME280;22981;43.080;25.550;2023-11-19T04:33:16;99440.83;;;4.58;72.65
37066;BME280;22981;43.080;25.550;2023-11-19T04:35:43;99449.98;;;4.55;72.54
37066;BME280;22981;43.080;25.550;2023-11-19T04:38:11;99449.80;;;4.57;72.47
37066;BME280;22981;43.080;25.550;2023-11-19T04:40:39;99452.45;;;4.57;72.46
37066;BME280;22981;43.080;25.550;2023-11-19T04:43:06;99459.08;;;4.57;72.49
37066;BME280;22981;43.080;25.550;2023-11-19T04:45:34;99455.60;;;4.56;72.38
37066;BME280;22981;43.080;25.550;2023-11-19T04:48:01;99465.39;;;4.56;72.29
37066;BME280;22981;43.080;25.550;2023-11-19T04:50:29;99464.06;;;4.56;72.22
37066;BME280;22981;43.080;25.550;2023-11-19T04:52:56;99470.38;;;4.55;72.17
37066;BME280;22981;43.080;25.550;2023-11-19T04:55:24;99479.66;;;4.55;72.12
37066;BME280;22981;43.080;25.550;2023-11-19T04:57:53;99479.31;;;4.53;72.05
37066;BME280;22981;43.080;25.550;2023-11-19T05:00:21;99492.09;;;4.54;72.06
37066;BME280;22981;43.080;25.550;2023-11-19T05:02:49;99493.42;;;4.54;72.06
37066;BME280;22981;43.080;25.550;2023-11-19T05:05:17;99492.72;;;4.56;71.97
37066;BME280;22981;43.080;25.550;2023-11-19T05:07:45;99497.70;;;4.55;71.88
37066;BME280;22981;43.080;25.550;2023-11-19T05:10:12;99493.54;;;4.57;71.88
37066;BME280;22981;43.080;25.550;2023-11-19T05:12:40;99498.53;;;4.56;71.78
37066;BME280;22981;43.080;25.550;2023-11-19T05:15:08;99496.89;;;4.55;71.72
37066;BME280;22981;43.080;25.550;2023-11-19T05:17:37;99499.03;;;4.55;71.79
37066;BME280;22981;43.080;25.550;2023-11-19T05:20:06;99497.39;;;4.54;71.74
37066;BME280;22981;43.080;25.550;2023-11-19T05:22:35;99505.34;;;4.54;71.74
37066;BME280;22981;43.080;25.550;2023-11-19T05:25:03;99510.97;;;4.55;71.70
37066;BME280;22981;43.080;25.550;2023-11-19T05:27:32;99520.09;;;4.52;71.59
37066;BME280;22981;43.080;25.550;2023-11-19T05:29:59;99520.41;;;4.53;71.57
37066;BME280;22981;43.080;25.550;2023-11-19T05:32:27;99522.73;;;4.52;71.60
37066;BME280;22981;43.080;25.550;2023-11-19T05:34:54;99524.88;;;4.53;71.55
37066;BME280;22981;43.080;25.550;2023-11-19T05:37:22;99527.22;;;4.52;71.49
37066;BME280;22981;43.080;25.550;2023-11-19T05:39:50;99532.02;;;4.52;71.59
37066;BME280;22981;43.080;25.550;2023-11-19T05:42:17;99531.01;;;4.53;71.64
37066;BME280;22981;43.080;25.550;2023-11-19T05:44:45;99528.36;;;4.53;71.64
37066;BME280;22981;43.080;25.550;2023-11-19T05:47:13;99529.68;;;4.53;71.66
37066;BME280;22981;43.080;25.550;2023-11-19T05:49:40;99527.88;;;4.54;71.69
37066;BME280;22981;43.080;25.550;2023-11-19T05:52:08;99529.48;;;4.59;71.77
37066;BME280;22981;43.080;25.550;2023-11-19T05:54:37;99530.13;;;4.61;71.73
37066;BME280;22981;43.080;25.550;2023-11-19T05:57:07;99526.45;;;4.62;71.65
37066;BME280;22981;43.080;25.550;2023-11-19T05:59:39;99523.64;;;4.64;71.58
37066;BME280;22981;43.080;25.550;2023-11-19T06:02:07;99518.50;;;4.62;71.48
37066;BME280;22981;43.080;25.550;2023-11-19T06:04:34;99532.11;;;4.63;71.51
37066;BME280;22981;43.080;25.550;2023-11-19T06:07:02;99534.88;;;4.66;71.50
37066;BME280;22981;43.080;25.550;2023-11-19T06:09:29;99536.55;;;4.67;71.45
37066;BME280;22981;43.080;25.550;2023-11-19T06:11:59;99534.53;;;4.69;71.38
37066;BME280;22981;43.080;25.550;2023-11-19T06:14:28;99541.80;;;4.71;71.33
37066;BME280;22981;43.080;25.550;2023-11-19T06:16:56;99552.75;;;4.72;71.30
37066;BME280;22981;43.080;25.550;2023-11-19T06:19:23;99555.20;;;4.73;71.31
37066;BME280;22981;43.080;25.550;2023-11-19T06:24:17;99552.71;;;4.76;71.21
37066;BME280;22981;43.080;25.550;2023-11-19T06:26:44;99558.33;;;4.77;71.15
37066;BME280;22981;43.080;25.550;2023-11-19T06:29:12;99566.09;;;4.78;71.05
37066;BME280;22981;43.080;25.550;2023-11-19T06:31:41;99571.24;;;4.80;71.01
37066;BME280;22981;43.080;25.550;2023-11-19T06:34:09;99567.70;;;4.84;71.02
37066;BME280;22981;43.080;25.550;2023-11-19T06:36:37;99565.39;;;4.85;70.96
37066;BME280;22981;43.080;25.550;2023-11-19T06:39:05;99551.31;;;4.84;70.89
37066;BME280;22981;43.080;25.550;2023-11-19T06:41:32;99556.93;;;4.85;70.85
37066;BME280;22981;43.080;25.550;2023-11-19T06:44:00;99559.70;;;4.88;70.88
37066;BME280;22981;43.080;25.550;2023-11-19T06:46:28;99559.04;;;4.90;70.87
37066;BME280;22981;43.080;25.550;2023-11-19T06:48:55;99563.84;;;4.90;70.89
37066;BME280;22981;43.080;25.550;2023-11-19T06:51:23;99571.45;;;4.93;70.89
37066;BME280;22981;43.080;25.550;2023-11-19T06:53:51;99571.77;;;4.94;70.80
37066;BME280;22981;43.080;25.550;2023-11-19T06:56:20;99571.10;;;4.92;70.70
37066;BME280;22981;43.080;25.550;2023-11-19T06:58:48;99577.06;;;4.94;70.65
37066;BME280;22981;43.080;25.550;2023-11-19T07:01:16;99580.54;;;4.95;70.41
37066;BME280;22981;43.080;25.550;2023-11-19T07:03:47;99567.78;;;4.94;70.37
37066;BME280;22981;43.080;25.550;2023-11-19T07:06:15;99577.22;;;4.97;70.38
37066;BME280;22981;43.080;25.550;2023-11-19T07:08:43;99576.80;;;5.04;70.40
37066;BME280;22981;43.080;25.550;2023-11-19T07:11:14;99579.25;;;5.10;70.25
37066;BME280;22981;43.080;25.550;2023-11-19T07:13:42;99587.48;;;5.15;70.17
37066;BME280;22981;43.080;25.550;2023-11-19T07:16:14;99587.77;;;5.20;70.11
37066;BME280;22981;43.080;25.550;2023-11-19T07:18:42;99602.63;;;5.25;70.03
37066;BME280;22981;43.080;25.550;2023-11-19T07:21:10;99607.39;;;5.30;69.89
37066;BME280;22981;43.080;25.550;2023-11-19T07:23:37;99602.09;;;5.30;69.79
37066;BME280;22981;43.080;25.550;2023-11-19T07:26:06;99612.55;;;5.31;69.73
37066;BME280;22981;43.080;25.550;2023-11-19T07:28:35;99615.83;;;5.33;69.65
37066;BME280;22981;43.080;25.550;2023-11-19T07:31:03;99612.86;;;5.32;69.53
37066;BME280;22981;43.080;25.550;2023-11-19T07:33:30;99607.70;;;5.31;69.39
37066;BME280;22981;43.080;25.550;2023-11-19T07:35:58;99616.02;;;5.32;69.41
37066;BME280;22981;43.080;25.550;2023-11-19T07:38:25;99613.48;;;5.34;69.39
37066;BME280;22981;43.080;25.550;2023-11-19T07:40:53;99616.09;;;5.38;69.37
37066;BME280;22981;43.080;25.550;2023-11-19T07:43:21;99620.55;;;5.42;69.22
37066;BME280;22981;43.080;25.550;2023-11-19T07:45:48;99626.98;;;5.43;69.15
37066;BME280;22981;43.080;25.550;2023-11-19T07:48:16;99627.95;;;5.46;69.04
37066;BME280;22981;43.080;25.550;2023-11-19T07:50:45;99632.60;;;5.48;68.92
37066;BME280;22981;43.080;25.550;2023-11-19T07:53:12;99650.64;;;5.53;68.82
37066;BME280;22981;43.080;25.550;2023-11-19T07:55:40;99651.08;;;5.57;68.69
37066;BME280;22981;43.080;25.550;2023-11-19T07:58:08;99645.41;;;5.60;68.44
37066;BME280;22981;43.080;25.550;2023-11-19T08:00:35;99633.09;;;5.63;68.39
37066;BME280;22981;43.080;25.550;2023-11-19T08:03:04;99636.48;;;5.71;68.43
37066;BME280;22981;43.080;25.550;2023-11-19T08:05:32;99648.15;;;5.81;68.35
37066;BME280;22981;43.080;25.550;2023-11-19T08:08:00;99648.37;;;5.90;68.24
37066;BME280;22981;43.080;25.550;2023-11-19T08:10:27;99655.81;;;5.95;68.01
37066;BME280;22981;43.080;25.550;2023-11-19T08:12:55;99648.14;;;6.00;67.76
37066;BME280;22981;43.080;25.550;2023-11-19T08:15:22;99647.94;;;6.01;67.62
37066;BME280;22981;43.080;25.550;2023-11-19T08:17:50;99638.08;;;6.06;67.48
37066;BME280;22981;43.080;25.550;2023-11-19T08:20:17;99643.54;;;6.09;67.42
37066;BME280;22981;43.080;25.550;2023-11-19T08:22:45;99638.59;;;6.16;67.42
37066;BME280;22981;43.080;25.550;2023-11-19T08:25:13;99641.74;;;6.41;67.11
37066;BME280;22981;43.080;25.550;2023-11-19T08:27:40;99644.50;;;6.69;66.58
37066;BME280;22981;43.080;25.550;2023-11-19T08:30:09;99647.58;;;7.05;65.99
37066;BME280;22981;43.080;25.550;2023-11-19T08:32:37;99631.47;;;7.41;65.30
37066;BME280;22981;43.080;25.550;2023-11-19T08:35:05;99634.83;;;7.74;64.53
37066;BME280;22981;43.080;25.550;2023-11-19T08:37:34;99618.13;;;7.93;63.92
37066;BME280;22981;43.080;25.550;2023-11-19T08:40:03;99628.93;;;8.09;63.27
37066;BME280;22981;43.080;25.550;2023-11-19T08:42:33;99630.34;;;8.29;63.02
37066;BME280;22981;43.080;25.550;2023-11-19T08:45:01;99621.83;;;8.53;62.35
37066;BME280;22981;43.080;25.550;2023-11-19T08:47:29;99609.72;;;8.64;61.71
37066;BME280;22981;43.080;25.550;2023-11-19T08:49:56;99620.81;;;8.68;61.40
37066;BME280;22981;43.080;25.550;2023-11-19T08:52:24;99616.22;;;8.79;61.41
37066;BME280;22981;43.080;25.550;2023-11-19T08:54:52;99610.58;;;8.91;61.26
37066;BME280;22981;43.080;25.550;2023-11-19T08:57:19;99614.15;;;9.08;60.97
37066;BME280;22981;43.080;25.550;2023-11-19T08:59:47;99606.75;;;9.23;60.32
37066;BME280;22981;43.080;25.550;2023-11-19T09:02:14;99619.79;;;9.35;59.88
37066;BME280;22981;43.080;25.550;2023-11-19T09:04:42;99609.33;;;9.34;59.75
37066;BME280;22981;43.080;25.550;2023-11-19T09:07:10;99609.41;;;9.43;59.08
37066;BME280;22981;43.080;25.550;2023-11-19T09:09:38;99612.34;;;9.57;59.04
37066;BME280;22981;43.080;25.550;2023-11-19T09:12:06;99602.80;;;9.45;58.05
37066;BME280;22981;43.080;25.550;2023-11-19T09:14:33;99611.06;;;9.24;58.17
37066;BME280;22981;43.080;25.550;2023-11-19T09:17:01;99609.14;;;9.09;58.12
37066;BME280;22981;43.080;25.550;2023-11-19T09:19:28;99617.16;;;8.95;58.39
37066;BME280;22981;43.080;25.550;2023-11-19T09:21:58;99603.05;;;8.77;58.64
37066;BME280;22981;43.080;25.550;2023-11-19T09:24:25;99612.72;;;8.65;58.85
37066;BME280;22981;43.080;25.550;2023-11-19T09:26:53;99607.24;;;8.49;58.99
37066;BME280;22981;43.080;25.550;2023-11-19T09:29:22;99603.42;;;8.41;59.33
37066;BME280;22981;43.080;25.550;2023-11-19T09:31:50;99611.22;;;8.43;59.40
37066;BME280;22981;43.080;25.550;2023-11-19T09:34:18;99610.33;;;8.60;59.26
37066;BME280;22981;43.080;25.550;2023-11-19T09:36:45;99605.91;;;8.49;58.96
37066;BME280;22981;43.080;25.550;2023-11-19T09:39:13;99605.37;;;8.43;59.33
37066;BME280;22981;43.080;25.550;2023-11-19T09:41:42;99599.84;;;8.45;59.40
37066;BME280;22981;43.080;25.550;2023-11-19T09:44:11;99602.94;;;8.48;59.23
37066;BME280;22981;43.080;25.550;2023-11-19T09:46:42;99595.52;;;8.37;59.21
37066;BME280;22981;43.080;25.550;2023-11-19T09:49:10;99603.85;;;8.21;59.30
37066;BME280;22981;43.080;25.550;2023-11-19T09:51:38;99603.08;;;8.03;59.65
37066;BME280;22981;43.080;25.550;2023-11-19T09:54:06;99601.95;;;8.01;59.85
37066;BME280;22981;43.080;25.550;2023-11-19T09:56:35;99603.80;;;8.01;59.81
37066;BME280;22981;43.080;25.550;2023-11-19T09:59:03;99611.16;;;7.99;59.75
37066;BME280;22981;43.080;25.550;2023-11-19T10:01:31;99607.97;;;7.93;59.87
37066;BME280;22981;43.080;25.550;2023-11-19T10:03:59;99611.84;;;8.14;59.85
37066;BME280;22981;43.080;25.550;2023-11-19T10:06:27;99595.73;;;8.42;59.42
37066;BME280;22981;43.080;25.550;2023-11-19T10:08:55;99592.06;;;8.63;59.17
37066;BME280;22981;43.080;25.550;2023-11-19T10:11:23;99601.72;;;8.77;58.61
37066;BME280;22981;43.080;25.550;2023-11-19T10:13:53;99610.77;;;8.70;58.16
37066;BME280;22981;43.080;25.550;2023-11-19T10:16:27;99614.35;;;8.66;58.29
37066;BME280;22981;43.080;25.550;2023-11-19T10:18:50;99601.00;;;8.73;58.28
37066;BME280;22981;43.080;25.550;2023-11-19T10:21:18;99597.52;;;8.66;58.31
37066;BME280;22981;43.080;25.550;2023-11-19T10:23:50;99597.27;;;8.47;58.53
37066;BME280;22981;43.080;25.550;2023-11-19T10:26:20;99594.97;;;8.31;58.94
37066;BME280;22981;43.080;25.550;2023-11-19T10:28:48;99595.76;;;8.18;59.26
37066;BME280;22981;43.080;25.550;2023-11-19T10:31:17;99588.48;;;8.29;59.37
37066;BME280;22981;43.080;25.550;2023-11-19T10:33:45;99594.93;;;8.55;59.11
37066;BME280;22981;43.080;25.550;2023-11-19T10:36:13;99580.70;;;8.78;58.83
37066;BME280;22981;43.080;25.550;2023-11-19T10:38:41;99573.27;;;9.07;58.30
37066;BME280;22981;43.080;25.550;2023-11-19T10:41:10;99583.64;;;9.26;57.90
37066;BME280;22981;43.080;25.550;2023-11-19T10:43:44;99591.03;;;9.24;57.57
37066;BME280;22981;43.080;25.550;2023-11-19T10:46:13;99586.44;;;9.09;57.62
37066;BME280;22981;43.080;25.550;2023-11-19T10:48:43;99589.72;;;8.84;57.90
37066;BME280;22981;43.080;25.550;2023-11-19T10:51:11;99588.78;;;8.68;58.28
37066;BME280;22981;43.080;25.550;2023-11-19T10:53:44;99595.05;;;8.58;58.38
37066;BME280;22981;43.080;25.550;2023-11-19T10:56:13;99587.45;;;8.48;58.56
37066;BME280;22981;43.080;25.550;2023-11-19T10:58:45;99583.42;;;8.41;58.65
37066;BME280;22981;43.080;25.550;2023-11-19T11:01:20;99576.63;;;8.39;58.62
37066;BME280;22981;43.080;25.550;2023-11-19T11:03:51;99578.50;;;8.45;58.64
37066;BME280;22981;43.080;25.550;2023-11-19T11:06:22;99575.32;;;8.45;58.43
37066;BME280;22981;43.080;25.550;2023-11-19T11:08:50;99585.03;;;8.36;58.23
37066;BME280;22981;43.080;25.550;2023-11-19T11:11:18;99582.33;;;8.29;58.28
37066;BME280;22981;43.080;25.550;2023-11-19T11:13:50;99588.48;;;8.23;58.23
37066;BME280;22981;43.080;25.550;2023-11-19T11:16:20;99592.97;;;8.16;58.44
37066;BME280;22981;43.080;25.550;2023-11-19T11:18:50;99574.09;;;8.11;58.54
37066;BME280;22981;43.080;25.550;2023-11-19T11:21:24;99576.93;;;8.02;58.47
37066;BME280;22981;43.080;25.550;2023-11-19T11:26:49;99568.38;;;7.90;58.52
37066;BME280;22981;43.080;25.550;2023-11-19T11:32:37;99562.39;;;8.05;58.47
37066;BME280;22981;43.080;25.550;2023-11-19T11:38:04;99564.45;;;8.16;58.09
37066;BME280;22981;43.080;25.550;2023-11-19T11:40:33;99565.00;;;8.22;58.16
37066;BME280;22981;43.080;25.550;2023-11-19T11:43:02;99562.69;;;8.37;58.10
37066;BME280;22981;43.080;25.550;2023-11-19T11:45:39;99560.02;;;8.43;57.94
37066;BME280;22981;43.080;25.550;2023-11-19T11:48:10;99566.83;;;8.52;57.65
37066;BME280;22981;43.080;25.550;2023-11-19T11:50:49;99566.30;;;8.73;57.28
37066;BME280;22981;43.080;25.550;2023-11-19T11:53:17;99559.72;;;9.02;56.69
37066;BME280;22981;43.080;25.550;2023-11-19T11:55:53;99545.96;;;8.98;56.06
37066;BME280;22981;43.080;25.550;2023-11-19T11:58:32;99557.47;;;8.86;56.12
37066;BME280;22981;43.080;25.550;2023-11-19T12:01:04;99554.48;;;8.98;56.29
37066;BME280;22981;43.080;25.550;2023-11-19T12:03:32;99550.95;;;9.31;55.69
37066;BME280;22981;43.080;25.550;2023-11-19T12:06:00;99555.36;;;9.63;55.51
37066;BME280;22981;43.080;25.550;2023-11-19T12:08:29;99550.30;;;9.93;54.99
37066;BME280;22981;43.080;25.550;2023-11-19T12:10:58;99547.11;;;10.16;54.52
37066;BME280;22981;43.080;25.550;2023-11-19T12:16:13;99550.19;;;10.20;54.00
37066;BME280;22981;43.080;25.550;2023-11-19T12:18:41;99557.63;;;9.89;54.23
37066;BME280;22981;43.080;25.550;2023-11-19T12:21:09;99555.80;;;9.60;54.55
37066;BME280;22981;43.080;25.550;2023-11-19T12:23:44;99563.87;;;9.47;54.76
37066;BME280;22981;43.080;25.550;2023-11-19T12:26:34;99563.98;;;9.36;54.88
37066;BME280;22981;43.080;25.550;2023-11-19T12:29:02;99566.16;;;9.23;54.92
37066;BME280;22981;43.080;25.550;2023-11-19T12:31:33;99564.73;;;9.08;55.23
37066;BME280;22981;43.080;25.550;2023-11-19T12:34:06;99558.09;;;9.01;55.35
37066;BME280;22981;43.080;25.550;2023-11-19T12:36:35;99558.41;;;8.89;55.41
37066;BME280;22981;43.080;25.550;2023-11-19T12:39:03;99559.01;;;8.77;55.42
37066;BME280;22981;43.080;25.550;2023-11-19T12:41:31;99557.16;;;8.65;55.58
37066;BME280;22981;43.080;25.550;2023-11-19T12:44:10;99546.70;;;8.63;55.62
37066;BME280;22981;43.080;25.550;2023-11-19T12:46:38;99540.83;;;8.90;55.32
37066;BME280;22981;43.080;25.550;2023-11-19T12:49:06;99543.27;;;9.25;54.75
37066;BME280;22981;43.080;25.550;2023-11-19T12:51:33;99537.03;;;9.51;54.29
37066;BME280;22981;43.080;25.550;2023-11-19T12:54:01;99536.13;;;9.70;53.81
37066;BME280;22981;43.080;25.550;2023-11-19T12:56:28;99531.22;;;9.90;53.66
37066;BME280;22981;43.080;25.550;2023-11-19T12:58:56;99530.79;;;10.09;53.41
37066;BME280;22981;43.080;25.550;2023-11-19T13:01:23;99523.43;;;10.20;53.12
37066;BME280;22981;43.080;25.550;2023-11-19T13:03:51;99510.25;;;10.25;52.88
37066;BME280;22981;43.080;25.550;2023-11-19T13:06:18;99501.05;;;10.30;52.86
37066;BME280;22981;43.080;25.550;2023-11-19T13:08:49;99482.97;;;10.41;52.92
37066;BME280;22981;43.080;25.550;2023-11-19T13:11:32;99471.76;;;10.51;52.78
37066;BME280;22981;43.080;25.550;2023-11-19T13:14:04;99458.47;;;10.53;52.55
37066;BME280;22981;43.080;25.550;2023-11-19T13:16:35;99459.28;;;10.54;52.15
37066;BME280;22981;43.080;25.550;2023-11-19T13:19:03;99465.06;;;10.51;52.12
37066;BME280;22981;43.080;25.550;2023-11-19T13:21:32;99472.80;;;10.50;51.92